• Join FlightAware (Why Join?)
  • Login
  • US Flag 
12:28PM EDT


 

Airport Tracker/Info


-or-


 

Live Flight TrackerFlight Track Log ✈ N449ND ✈ 09-Mar-2014 ✈ KGNV - KFPR

Flight Track Log - Related Links

Times and Time Zones

All times are in EDT time to prevent confusion due to time zone crossing. See the N449ND flight status page for this flight to view local times or setup timezone preferences in your user account.

Time Position Orientation Groundspeed Altitude Reporting Facility
EDT Latitude Longitude Course Direction KTS MPH feet Rate Location/Type
10:43PM 28.7333 -81.6333 156° South 98 113 3,600  Level Orlando TRACON
10:44PM 28.7000 -81.6167 156° South 98 113 3,600  Level Orlando TRACON
10:45PM 28.6833 -81.6167 180° South 99 114 3,600 -60 Level Orlando TRACON
10:46PM 28.6500 -81.6000 156° South 101 116 3,500 -60 Descending Orlando TRACON
10:47PM 28.6167 -81.5833 156° South 98 113 3,500  Level Orlando TRACON
10:47PM 28.6000 -81.5833 180° South 96 110 3,500  Level Orlando TRACON
10:48PM 28.5833 -81.5667 139° Southeast 96 110 3,500  Level Orlando TRACON
10:50PM 28.5500 -81.5500 156° South 101 116 3,500  Level Orlando TRACON
10:51PM 28.5333 -81.5500 180° South 103 119 3,500  Level Orlando TRACON
10:52PM 28.5000 -81.5333 156° South 100 115 3,500  Level Orlando TRACON
10:52PM 28.4667 -81.5333 180° South 99 114 3,500  Level Orlando TRACON
10:53PM 28.4500 -81.5333 180° South 95 109 3,500  Level Orlando TRACON
10:54PM 28.4167 -81.5167 156° South 93 107 3,500  Level Orlando TRACON
10:55PM 28.4000 -81.5167 180° South 95 109 3,500  Level Orlando TRACON
10:56PM 28.3667 -81.5167 180° South 96 110 3,600  Climbing Orlando TRACON
10:58PM 28.3333 -81.5167 180° South 95 109 3,600 -60 Level Orlando TRACON
10:58PM 28.3167 -81.5000 139° Southeast 98 113 3,500 -60 Descending Orlando TRACON
10:59PM 28.2833 -81.5000 180° South 101 116 3,500  Level Orlando TRACON
11:00PM 28.2667 -81.4833 139° Southeast 96 110 3,500  Level Orlando TRACON
11:01PM 28.2500 -81.4667 139° Southeast 98 113 3,500  Level Orlando TRACON
11:02PM 28.2333 -81.4500 139° Southeast 99 114 3,600  Climbing Orlando TRACON
11:03PM 28.2167 -81.4167 120° Southeast 98 113 3,600  Level Orlando TRACON
11:04PM 28.2000 -81.4000 139° Southeast 95 109 3,600 -60 Level Orlando TRACON
11:06PM 28.1719 -81.3503 123° Southeast 108 124 3,500 -60 Descending Miami Center
11:07PM 28.1542 -81.3236 127° Southeast 108 124 3,500  Level Miami Center
11:08PM 28.1361 -81.2994 130° Southeast 108 124 3,500  Level Miami Center
11:09PM 28.1178 -81.2775 133° Southeast 102 117 3,500  Level Miami Center
11:10PM 28.1019 -81.2511 124° Southeast 102 117 3,500  Level Miami Center
11:11PM 28.0839 -81.2267 130° Southeast 102 117 3,600  Climbing Miami Center
11:12PM 28.0681 -81.2003 124° Southeast 102 117 3,500 -60 Descending Miami Center
11:13PM 28.0522 -81.1761 127° Southeast 102 117 3,500  Level Miami Center
11:14PM 28.0342 -81.1497 128° Southeast 102 117 3,500  Level Miami Center
11:15PM 28.0181 -81.1256 127° Southeast 107 123 3,500  Level Miami Center
11:16PM 28.0042 -81.1014 123° Southeast 107 123 3,500  Level Miami Center
11:17PM 27.9864 -81.0750 127° Southeast 107 123 3,500  Level Miami Center
11:18PM 27.9661 -81.0458 128° Southeast 107 123 3,500  Level Miami Center
11:19PM 27.9503 -81.0194 124° Southeast 107 123 3,600  Climbing Miami Center
11:20PM 27.9322 -80.9931 128° Southeast 107 123 3,600 -60 Level Miami Center
11:21PM 27.9142 -80.9711 133° Southeast 107 123 3,500 -60 Descending Miami Center
11:22PM 27.8900 -80.9422 133° Southeast 107 123 3,500  Level Miami Center
11:23PM 27.8656 -80.9203 142° Southeast 113 130 3,500  Level Miami Center
11:24PM 27.8475 -80.8961 130° Southeast 108 124 3,500  Level Miami Center
11:25PM 27.8336 -80.8697 121° Southeast 103 119 3,500  Level Miami Center
11:26PM 27.8197 -80.8411 119° Southeast 103 119 3,500  Level Miami Center
11:27PM 27.8017 -80.8122 125° Southeast 108 124 3,500  Level Miami Center
11:28PM 27.7878 -80.7858 121° Southeast 108 124 3,500  Level Miami Center
11:29PM 27.7697 -80.7619 131° Southeast 108 124 3,500  Level Miami Center
11:30PM 27.7517 -80.7331 125° Southeast 108 124 3,500  Level Miami Center
11:31PM 27.7336 -80.7067 128° Southeast 108 124 3,500  Level Miami Center
11:32PM 27.7156 -80.6803 128° Southeast 108 124 3,500  Level Miami Center
11:33PM 27.6972 -80.6608 137° Southeast 108 124 3,500  Level Miami Center
11:34PM 27.6769 -80.6344 131° Southeast 103 119 3,500 -60 Level Miami Center
11:35PM 27.6567 -80.6103 133° Southeast 103 119 3,400  Descending Miami Center
11:36PM 27.6386 -80.5839 128° Southeast 103 119 3,500 60 Climbing Miami Center